createdAt,value
2018-05-27T00:00:11.833Z,17.90
2018-05-27T00:02:41.466Z,18.10
2018-05-27T00:05:11.316Z,17.90
2018-05-27T00:07:40.414Z,17.80
2018-05-27T00:10:09.524Z,17.70
2018-05-27T00:12:38.724Z,17.60
2018-05-27T00:15:08.040Z,17.60
2018-05-27T00:17:37.199Z,17.50
2018-05-27T00:20:06.229Z,17.50
2018-05-27T00:22:35.343Z,17.40
2018-05-27T00:25:03.714Z,17.40
2018-05-27T00:27:32.803Z,17.30
2018-05-27T00:30:02.314Z,17.10
2018-05-27T00:32:31.355Z,17.10
2018-05-27T00:35:00.408Z,17.10
2018-05-27T00:37:29.437Z,17.10
2018-05-27T00:39:58.485Z,17.20
2018-05-27T00:42:27.527Z,17.10
2018-05-27T00:44:56.601Z,17.10
2018-05-27T00:47:26.408Z,16.90
2018-05-27T00:49:56.248Z,16.90
2018-05-27T00:52:25.444Z,16.90
2018-05-27T00:54:54.474Z,17.00
2018-05-27T00:57:23.502Z,16.90
2018-05-27T00:59:52.595Z,16.90
2018-05-27T01:02:22.457Z,16.80
2018-05-27T01:04:51.554Z,16.80
2018-05-27T01:07:21.655Z,16.80
2018-05-27T01:09:50.760Z,16.80
2018-05-27T01:12:20.238Z,16.80
2018-05-27T01:14:49.314Z,16.80
2018-05-27T01:17:18.432Z,16.80
2018-05-27T01:19:47.826Z,16.70
2018-05-27T01:22:17.147Z,16.60
2018-05-27T01:24:46.205Z,16.50
2018-05-27T01:27:15.264Z,16.60
2018-05-27T01:29:44.293Z,16.60
2018-05-27T01:32:13.789Z,16.40
2018-05-27T01:34:43.261Z,16.50
2018-05-27T01:37:12.327Z,16.40
2018-05-27T01:39:41.381Z,16.50
2018-05-27T01:42:11.205Z,16.40
2018-05-27T01:44:41.013Z,16.50
2018-05-27T01:47:10.053Z,16.40
2018-05-27T01:49:39.091Z,16.40
2018-05-27T01:52:08.956Z,16.30
2018-05-27T01:54:37.974Z,16.30
2018-05-27T01:57:07.020Z,16.30
2018-05-27T01:59:36.070Z,16.30
2018-05-27T02:02:04.785Z,16.20
2018-05-27T02:04:33.840Z,16.20
2018-05-27T02:07:02.915Z,16.20
2018-05-27T02:09:31.992Z,16.20
2018-05-27T02:12:01.025Z,16.20
2018-05-27T02:14:30.363Z,16.20
2018-05-27T02:16:59.432Z,16.10
2018-05-27T02:19:29.295Z,16.20
2018-05-27T02:21:58.391Z,16.20
2018-05-27T02:24:27.492Z,16.20
2018-05-27T02:26:56.543Z,16.10
2018-05-27T02:29:25.602Z,16.00
2018-05-27T02:31:54.644Z,16.00
2018-05-27T02:34:23.705Z,16.00
2018-05-27T02:36:52.789Z,16.00
2018-05-27T02:39:22.018Z,16.00
2018-05-27T02:41:51.827Z,15.90
2018-05-27T02:44:21.748Z,15.80
2018-05-27T02:46:50.778Z,15.80
2018-05-27T02:49:19.865Z,15.90
2018-05-27T02:51:48.868Z,15.90
2018-05-27T02:54:17.929Z,15.80
2018-05-27T02:56:46.999Z,15.80
2018-05-27T02:59:16.827Z,15.80
2018-05-27T03:01:45.859Z,15.80
2018-05-27T03:04:14.921Z,15.70
2018-05-27T03:06:43.985Z,15.70
2018-05-27T03:09:13.137Z,15.60
2018-05-27T03:11:42.242Z,15.70
2018-05-27T03:14:11.293Z,15.70
2018-05-27T03:16:41.144Z,15.70
2018-05-27T03:19:10.199Z,15.70
2018-05-27T03:21:39.462Z,15.60
2018-05-27T03:24:08.493Z,15.60
2018-05-27T03:26:37.555Z,15.70
2018-05-27T03:29:06.637Z,15.70
2018-05-27T03:31:35.676Z,15.70
2018-05-27T03:34:04.730Z,15.50
2018-05-27T03:36:33.786Z,15.60
2018-05-27T03:39:02.826Z,15.80
2018-05-27T03:41:31.870Z,15.80
2018-05-27T03:44:00.906Z,15.90
2018-05-27T03:46:29.967Z,16.00
2018-05-27T03:48:59.024Z,16.00
2018-05-27T03:51:27.829Z,16.00
2018-05-27T03:53:56.896Z,16.00
2018-05-27T03:56:26.717Z,16.40
2018-05-27T03:58:55.772Z,16.40
2018-05-27T04:01:24.813Z,16.60
2018-05-27T04:04:05.239Z,16.70
2018-05-27T04:06:45.753Z,16.90
2018-05-27T04:09:14.803Z,17.10
2018-05-27T04:11:44.099Z,17.10
2018-05-27T04:14:13.145Z,17.30
2018-05-27T04:16:42.207Z,17.70
2018-05-27T04:19:12.045Z,18.00
2018-05-27T04:21:41.089Z,18.00
2018-05-27T04:24:10.211Z,18.30
2018-05-27T04:26:39.270Z,18.30
2018-05-27T04:29:08.344Z,18.50
2018-05-27T04:31:37.437Z,18.80
2018-05-27T04:34:06.461Z,19.10
2018-05-27T04:36:35.525Z,19.30
2018-05-27T04:39:04.092Z,19.50
2018-05-27T04:41:33.132Z,19.80
2018-05-27T04:44:02.176Z,19.40
2018-05-27T04:46:31.248Z,19.30
2018-05-27T04:49:01.025Z,19.50
2018-05-27T04:51:30.118Z,19.50
2018-05-27T04:53:59.168Z,19.70
2018-05-27T04:56:28.300Z,19.40
2018-05-27T04:58:57.406Z,19.40
2018-05-27T05:01:26.491Z,20.10
2018-05-27T05:03:55.647Z,20.60
2018-05-27T05:06:24.739Z,21.10
2018-05-27T05:08:53.801Z,21.50
2018-05-27T05:11:23.706Z,22.00
2018-05-27T05:13:52.763Z,22.00
2018-05-27T05:16:21.839Z,21.60
2018-05-27T05:18:50.919Z,22.10
2018-05-27T05:21:20.751Z,22.20
2018-05-27T05:23:49.782Z,22.10
2018-05-27T05:26:18.829Z,22.50
2018-05-27T05:28:47.872Z,22.70
2018-05-27T05:31:16.926Z,22.50
2018-05-27T05:33:45.995Z,22.00
2018-05-27T05:36:15.054Z,23.30
2018-05-27T05:38:44.692Z,24.40
2018-05-27T05:41:14.319Z,24.60
2018-05-27T05:43:44.705Z,25.00
2018-05-27T05:46:14.320Z,25.00
2018-05-27T05:48:43.937Z,25.80
2018-05-27T05:51:13.581Z,26.30
2018-05-27T05:53:43.941Z,25.80
2018-05-27T05:56:13.553Z,25.70
2018-05-27T05:58:43.247Z,24.10
2018-05-27T06:01:13.074Z,25.20
2018-05-27T06:03:43.529Z,26.30
2018-05-27T06:06:13.181Z,27.10
2018-05-27T06:08:42.814Z,26.00
2018-05-27T06:11:12.505Z,25.30
2018-05-27T06:13:42.135Z,28.70
2018-05-27T06:16:11.837Z,32.10
2018-05-27T06:18:41.534Z,31.00
2018-05-27T06:21:11.255Z,31.00
2018-05-27T06:23:40.873Z,33.40
2018-05-27T06:26:10.572Z,36.10
2018-05-27T06:28:40.433Z,35.40
2018-05-27T06:31:10.862Z,40.10
2018-05-27T06:33:40.467Z,40.10
2018-05-27T06:36:10.921Z,41.70
2018-05-27T06:38:41.407Z,41.40
2018-05-27T06:41:12.218Z,41.40
2018-05-27T06:43:41.915Z,39.60
2018-05-27T06:46:11.577Z,36.80
2018-05-27T06:48:41.219Z,38.90
2018-05-27T06:51:10.872Z,36.80
2018-05-27T06:53:40.730Z,39.80
2018-05-27T06:56:10.465Z,35.90
2018-05-27T06:58:40.115Z,33.10
2018-05-27T07:01:09.720Z,33.90
2018-05-27T07:03:40.110Z,36.20
2018-05-27T07:06:09.446Z,36.10
2018-05-27T07:08:39.844Z,43.50
2018-05-27T07:11:09.144Z,43.50
2018-05-27T07:13:38.493Z,42.30
2018-05-27T07:16:07.789Z,43.80
2018-05-27T07:18:37.104Z,46.00
2018-05-27T07:21:06.108Z,45.60
2018-05-27T07:23:35.409Z,47.80
2018-05-27T07:26:04.749Z,47.30
2018-05-27T07:28:34.382Z,44.10
2018-05-27T07:31:03.693Z,42.80
2018-05-27T07:33:33.036Z,43.20
2018-05-27T07:36:02.348Z,41.90
2018-05-27T07:38:31.673Z,42.30
2018-05-27T07:41:01.774Z,48.10
2018-05-27T07:43:31.109Z,48.00
2018-05-27T07:46:00.470Z,46.80
2018-05-27T07:48:29.824Z,47.20
2018-05-27T07:50:59.118Z,45.50
2018-05-27T07:53:28.467Z,39.60
2018-05-27T07:55:57.823Z,37.60
2018-05-27T07:58:27.231Z,35.90
2018-05-27T08:00:56.893Z,41.90
2018-05-27T08:03:27.013Z,36.00
2018-05-27T08:05:56.732Z,35.80
2018-05-27T08:08:26.733Z,34.40
2018-05-27T08:10:57.363Z,29.70
2018-05-27T08:13:29.011Z,30.20
2018-05-27T08:15:58.715Z,30.10
2018-05-27T08:18:28.464Z,30.60
2018-05-27T08:20:59.136Z,30.20
2018-05-27T08:23:28.786Z,30.20
2018-05-27T08:25:58.792Z,29.70
2018-05-27T08:28:28.493Z,27.90
2018-05-27T08:30:58.318Z,27.50
2018-05-27T08:33:27.766Z,26.80
2018-05-27T08:35:57.497Z,27.00
2018-05-27T08:38:27.542Z,28.00
2018-05-27T08:40:57.227Z,28.80
2018-05-27T08:43:27.083Z,28.60
2018-05-27T08:45:57.826Z,29.10
2018-05-27T08:48:27.805Z,29.10
2018-05-27T08:50:57.411Z,28.90
2018-05-27T08:53:27.245Z,29.20
2018-05-27T08:55:57.389Z,28.80
2018-05-27T08:58:27.734Z,29.10
2018-05-27T09:00:57.379Z,29.10
2018-05-27T09:03:26.983Z,29.30
2018-05-27T09:05:56.619Z,29.00
2018-05-27T09:08:25.891Z,28.30
2018-05-27T09:10:55.460Z,28.10
2018-05-27T09:13:25.052Z,27.90
2018-05-27T09:15:55.406Z,28.70
2018-05-27T09:18:24.990Z,28.70
2018-05-27T09:20:55.345Z,29.10
2018-05-27T09:23:24.956Z,29.10
2018-05-27T09:25:54.532Z,29.20
2018-05-27T09:28:24.205Z,29.00
2018-05-27T09:30:53.845Z,28.40
2018-05-27T09:33:23.578Z,29.00
2018-05-27T09:35:53.187Z,29.20
2018-05-27T09:38:22.762Z,29.10
2018-05-27T09:40:53.108Z,29.10
2018-05-27T09:43:22.710Z,29.00
2018-05-27T09:45:52.313Z,31.00
2018-05-27T09:48:21.305Z,32.00
2018-05-27T09:50:50.616Z,32.30
2018-05-27T09:53:19.946Z,32.20
2018-05-27T09:55:50.066Z,34.80
2018-05-27T09:58:20.211Z,37.10
2018-05-27T10:00:49.562Z,37.00
2018-05-27T10:03:20.339Z,36.30
2018-05-27T10:05:50.385Z,36.30
2018-05-27T10:08:20.772Z,36.40
2018-05-27T10:10:50.209Z,37.20
2018-05-27T10:13:19.674Z,39.20
2018-05-27T10:15:49.046Z,39.40
2018-05-27T10:18:18.114Z,39.40
2018-05-27T10:20:47.456Z,40.10
2018-05-27T10:23:16.796Z,40.70
2018-05-27T10:25:46.310Z,41.10
2018-05-27T10:28:17.590Z,41.40
2018-05-27T10:30:46.952Z,41.40
2018-05-27T10:33:17.393Z,39.30
2018-05-27T10:35:47.237Z,39.30
2018-05-27T10:38:16.845Z,39.30
2018-05-27T10:40:46.595Z,40.20
2018-05-27T10:43:16.193Z,38.60
2018-05-27T10:45:45.825Z,35.80
2018-05-27T10:48:16.184Z,34.40
2018-05-27T10:50:45.506Z,34.40
2018-05-27T10:53:15.114Z,32.80
2018-05-27T10:55:44.718Z,31.00
2018-05-27T10:58:14.306Z,31.50
2018-05-27T11:00:43.916Z,31.40
2018-05-27T11:03:13.257Z,31.50
2018-05-27T11:05:43.693Z,30.70
2018-05-27T11:08:13.444Z,30.70
2018-05-27T11:10:43.064Z,29.70
2018-05-27T11:13:12.645Z,30.00
2018-05-27T11:15:42.257Z,30.20
2018-05-27T11:18:11.866Z,29.90
2018-05-27T11:20:41.246Z,29.80
2018-05-27T11:23:11.584Z,29.60
2018-05-27T11:25:41.246Z,29.60
2018-05-27T11:28:11.638Z,29.80
2018-05-27T11:30:41.241Z,29.70
2018-05-27T11:33:10.844Z,29.80
2018-05-27T11:35:40.465Z,29.80
2018-05-27T11:38:10.056Z,29.50
2018-05-27T11:40:39.661Z,29.40
2018-05-27T11:43:09.504Z,29.50
2018-05-27T11:45:39.107Z,29.20
2018-05-27T11:48:08.721Z,28.70
2018-05-27T11:50:38.383Z,28.20
2018-05-27T11:53:07.970Z,27.90
2018-05-27T11:55:38.347Z,27.80
2018-05-27T11:58:07.922Z,27.80
2018-05-27T12:00:37.559Z,28.20
2018-05-27T12:03:07.190Z,28.20
2018-05-27T12:05:36.911Z,28.10
2018-05-27T12:08:06.656Z,28.30
2018-05-27T12:10:36.464Z,28.40
2018-05-27T12:13:06.100Z,28.10
2018-05-27T12:15:36.367Z,28.00
2018-05-27T12:18:06.320Z,28.00
2018-05-27T12:20:36.468Z,28.00
2018-05-27T12:23:07.110Z,27.60
2018-05-27T12:25:36.819Z,27.60
2018-05-27T12:28:06.539Z,27.40
2018-05-27T12:30:36.911Z,27.20
2018-05-27T12:33:06.562Z,27.10
2018-05-27T12:35:37.056Z,26.60
2018-05-27T12:38:06.253Z,26.70
2018-05-27T12:40:36.102Z,25.30
2018-05-27T12:43:05.197Z,25.30
2018-05-27T12:45:34.266Z,24.70
2018-05-27T12:48:03.341Z,24.30
2018-05-27T12:50:32.391Z,23.60
2018-05-27T12:53:01.428Z,22.90
2018-05-27T12:55:31.266Z,23.30
2018-05-27T12:58:01.080Z,23.00
2018-05-27T13:00:30.121Z,22.90
2018-05-27T13:02:58.829Z,23.30
2018-05-27T13:05:28.641Z,23.00
2018-05-27T13:07:58.438Z,22.80
2018-05-27T13:10:27.479Z,22.70
2018-05-27T13:12:56.528Z,22.70
2018-05-27T13:15:25.561Z,23.30
2018-05-27T13:17:54.667Z,24.20
2018-05-27T13:20:23.858Z,24.90
2018-05-27T13:22:52.905Z,25.30
2018-05-27T13:25:21.966Z,25.60
2018-05-27T13:27:51.084Z,25.90
2018-05-27T13:30:20.157Z,26.40
2018-05-27T13:32:49.436Z,26.90
2018-05-27T13:35:18.606Z,27.20
2018-05-27T13:37:48.479Z,27.50
2018-05-27T13:40:17.795Z,27.50
2018-05-27T13:42:47.452Z,27.20
2018-05-27T13:45:16.197Z,26.70
2018-05-27T13:47:46.772Z,26.60
2018-05-27T13:50:16.384Z,26.40
2018-05-27T13:52:46.064Z,26.30
2018-05-27T13:55:15.903Z,26.30
2018-05-27T13:57:46.102Z,26.30
2018-05-27T14:00:15.723Z,26.30
2018-05-27T14:02:44.755Z,26.50
2018-05-27T14:05:15.321Z,26.50
2018-05-27T14:07:44.795Z,26.50
2018-05-27T14:10:14.395Z,26.50
2018-05-27T14:12:43.644Z,26.70
2018-05-27T14:15:13.247Z,26.90
2018-05-27T14:17:43.065Z,27.10
2018-05-27T14:20:12.109Z,27.00
2018-05-27T14:22:41.226Z,27.10
2018-05-27T14:25:10.475Z,27.20
2018-05-27T14:27:40.464Z,26.50
2018-05-27T14:30:09.561Z,26.50
2018-05-27T14:32:39.373Z,26.20
2018-05-27T14:35:08.416Z,26.20
2018-05-27T14:37:37.564Z,26.10
2018-05-27T14:40:07.460Z,26.10
2018-05-27T14:42:36.511Z,25.90
2018-05-27T14:45:05.294Z,25.80
2018-05-27T14:47:34.409Z,26.00
2018-05-27T14:50:03.849Z,25.40
2018-05-27T14:52:33.805Z,24.80
2018-05-27T14:55:02.967Z,24.70
2018-05-27T14:57:32.926Z,24.70
2018-05-27T15:00:01.983Z,24.60
2018-05-27T15:02:31.087Z,24.60
2018-05-27T15:05:00.130Z,24.50
2018-05-27T15:07:29.227Z,24.40
2018-05-27T15:09:59.321Z,24.30
2018-05-27T15:12:28.481Z,24.30
2018-05-27T15:14:57.529Z,24.20
2018-05-27T15:17:26.553Z,24.20
2018-05-27T15:19:55.595Z,24.20
2018-05-27T15:22:24.637Z,24.20
2018-05-27T15:24:53.681Z,24.10
2018-05-27T15:27:22.742Z,24.10
2018-05-27T15:29:52.622Z,24.10
2018-05-27T15:32:22.423Z,24.10
2018-05-27T15:34:51.694Z,24.10
2018-05-27T15:37:20.792Z,24.10
2018-05-27T15:39:50.726Z,24.10
2018-05-27T15:42:19.790Z,24.00
2018-05-27T15:44:48.832Z,24.10
2018-05-27T15:47:18.660Z,24.10
2018-05-27T15:49:48.436Z,24.10
2018-05-27T15:52:18.254Z,24.00
2018-05-27T15:54:48.082Z,24.10
2018-05-27T15:57:17.135Z,24.10
2018-05-27T15:59:46.909Z,24.10
2018-05-27T16:02:16.267Z,24.10
2018-05-27T16:04:45.556Z,24.10
2018-05-27T16:07:14.659Z,24.00
2018-05-27T16:09:44.681Z,24.00
2018-05-27T16:12:14.163Z,24.10
2018-05-27T16:14:43.261Z,24.10
2018-05-27T16:17:12.369Z,24.10
2018-05-27T16:19:41.493Z,24.10
2018-05-27T16:22:10.733Z,24.10
2018-05-27T16:24:39.763Z,24.10
2018-05-27T16:27:08.987Z,24.10
2018-05-27T16:29:38.007Z,24.10
2018-05-27T16:32:07.053Z,24.10
2018-05-27T16:34:36.852Z,24.10
2018-05-27T16:37:05.933Z,24.10
2018-05-27T16:39:34.977Z,24.10
2018-05-27T16:42:05.308Z,24.10
2018-05-27T16:44:34.815Z,24.10
2018-05-27T16:47:03.875Z,24.10
2018-05-27T16:49:33.676Z,24.10
2018-05-27T16:52:02.721Z,24.10
2018-05-27T16:54:31.768Z,24.10
2018-05-27T16:57:01.581Z,24.10
2018-05-27T16:59:31.424Z,24.10
2018-05-27T17:02:00.454Z,24.10
2018-05-27T17:04:29.502Z,24.10
2018-05-27T17:06:58.520Z,24.20
2018-05-27T17:09:27.605Z,24.20
2018-05-27T17:11:56.733Z,24.10
2018-05-27T17:14:26.033Z,24.20
2018-05-27T17:16:55.128Z,24.20
2018-05-27T17:19:25.215Z,24.20
2018-05-27T17:21:54.388Z,24.20
2018-05-27T17:24:24.244Z,24.10
2018-05-27T17:26:53.227Z,24.10
2018-05-27T17:29:22.353Z,24.20
2018-05-27T17:31:51.609Z,24.20
2018-05-27T17:34:20.720Z,24.20
2018-05-27T17:36:49.798Z,24.20
2018-05-27T17:39:18.834Z,24.20
2018-05-27T17:41:47.881Z,24.20
2018-05-27T17:44:17.008Z,24.20
2018-05-27T17:46:46.078Z,24.20
2018-05-27T17:49:16.078Z,24.20
2018-05-27T17:51:45.131Z,24.10
2018-05-27T17:54:14.169Z,24.20
2018-05-27T17:56:43.227Z,24.20
2018-05-27T17:59:13.065Z,24.20
2018-05-27T18:01:42.167Z,24.20
2018-05-27T18:04:12.017Z,24.20
2018-05-27T18:06:42.077Z,24.20
2018-05-27T18:09:11.878Z,24.20
2018-05-27T18:11:41.713Z,24.20
2018-05-27T18:14:10.784Z,24.20
2018-05-27T18:16:39.813Z,24.20
2018-05-27T18:19:09.057Z,24.20
2018-05-27T18:21:37.852Z,24.20
2018-05-27T18:24:07.087Z,24.20
2018-05-27T18:26:36.162Z,24.20
2018-05-27T18:29:05.695Z,24.20
2018-05-27T18:31:35.284Z,24.20
2018-05-27T18:34:04.721Z,24.20
2018-05-27T18:36:34.972Z,24.20
2018-05-27T18:39:04.022Z,24.20
2018-05-27T18:41:33.074Z,24.20
2018-05-27T18:44:02.923Z,24.20
2018-05-27T18:46:32.737Z,24.20
2018-05-27T18:49:01.839Z,24.20
2018-05-27T18:51:31.029Z,24.20
2018-05-27T18:54:00.866Z,24.20
2018-05-27T18:56:30.011Z,24.20
2018-05-27T18:58:59.851Z,24.20
2018-05-27T19:01:29.858Z,24.20
2018-05-27T19:03:58.622Z,24.20
2018-05-27T19:06:28.567Z,24.30
2018-05-27T19:08:58.493Z,24.20
2018-05-27T19:11:27.998Z,24.20
2018-05-27T19:13:57.066Z,24.30
2018-05-27T19:16:26.914Z,24.20
2018-05-27T19:18:56.043Z,24.20
2018-05-27T19:21:25.109Z,24.30
2018-05-27T19:23:54.167Z,24.20
2018-05-27T19:26:23.369Z,24.20
2018-05-27T19:28:52.151Z,24.20
2018-05-27T19:31:22.074Z,24.20
2018-05-27T19:33:51.167Z,24.20
2018-05-27T19:36:32.297Z,24.20
2018-05-27T19:39:01.367Z,24.30
2018-05-27T19:41:30.436Z,24.20
2018-05-27T19:43:59.762Z,24.30
2018-05-27T19:46:28.835Z,24.20
2018-05-27T19:48:57.909Z,24.30
2018-05-27T19:51:27.727Z,24.30
2018-05-27T19:53:56.822Z,24.20
2018-05-27T19:56:26.740Z,24.30
2018-05-27T19:58:55.856Z,24.20
2018-05-27T20:01:24.976Z,24.30
2018-05-27T20:03:54.171Z,24.30
2018-05-27T20:06:24.164Z,24.30
2018-05-27T20:08:53.294Z,24.20
2018-05-27T20:11:23.163Z,24.30
2018-05-27T20:13:52.272Z,24.20
2018-05-27T20:16:21.419Z,24.30
2018-05-27T20:18:50.710Z,24.30
2018-05-27T20:21:20.058Z,24.30
2018-05-27T20:23:49.169Z,24.30
2018-05-27T20:26:17.880Z,24.30
2018-05-27T20:28:47.136Z,24.20
2018-05-27T20:31:17.107Z,24.30
2018-05-27T20:33:46.151Z,24.30
2018-05-27T20:36:15.513Z,24.30
2018-05-27T20:38:45.327Z,24.30
2018-05-27T20:41:15.190Z,24.30
2018-05-27T20:43:44.227Z,24.30
2018-05-27T20:46:14.061Z,24.30
2018-05-27T20:48:43.094Z,24.30
2018-05-27T20:51:12.188Z,24.30
2018-05-27T20:53:41.016Z,24.30
2018-05-27T20:56:10.939Z,24.30
2018-05-27T20:58:40.023Z,24.30
2018-05-27T21:01:09.882Z,24.30
2018-05-27T21:03:38.934Z,24.30
2018-05-27T21:06:08.021Z,24.30
2018-05-27T21:08:37.852Z,24.30
2018-05-27T21:11:07.722Z,24.30
2018-05-27T21:13:36.935Z,24.30
2018-05-27T21:16:06.054Z,24.30
2018-05-27T21:18:35.972Z,24.30
2018-05-27T21:21:05.065Z,24.30
2018-05-27T21:23:34.154Z,24.30
2018-05-27T21:26:03.293Z,24.30
2018-05-27T21:28:32.444Z,24.30
2018-05-27T21:31:01.873Z,24.30
2018-05-27T21:33:30.983Z,24.30
2018-05-27T21:36:00.018Z,24.30
2018-05-27T21:38:29.127Z,24.30
2018-05-27T21:40:58.237Z,24.40
2018-05-27T21:43:27.312Z,24.30
2018-05-27T21:45:57.139Z,24.30
2018-05-27T21:48:26.174Z,24.30
2018-05-27T21:50:55.198Z,24.40
2018-05-27T21:53:25.009Z,24.30
2018-05-27T21:55:54.827Z,24.30
2018-05-27T21:58:23.875Z,24.30
2018-05-27T22:00:52.909Z,24.30
2018-05-27T22:03:21.953Z,24.30
2018-05-27T22:05:50.977Z,24.30
2018-05-27T22:08:19.678Z,24.30
2018-05-27T22:10:48.723Z,24.40
2018-05-27T22:13:17.821Z,24.40
2018-05-27T22:15:46.562Z,24.40
2018-05-27T22:18:16.465Z,24.40
2018-05-27T22:20:45.223Z,24.30
2018-05-27T22:23:14.651Z,24.30
2018-05-27T22:25:46.922Z,24.40
2018-05-27T22:28:23.146Z,24.40
2018-05-27T22:30:53.108Z,24.40
2018-05-27T22:33:22.142Z,24.40
2018-05-27T22:35:53.521Z,24.40
2018-05-27T22:38:23.379Z,24.40
2018-05-27T22:40:54.132Z,24.40
2018-05-27T22:43:24.757Z,24.40
2018-05-27T22:45:55.670Z,24.40
2018-05-27T22:48:24.728Z,24.30
2018-05-27T22:50:53.784Z,24.40
2018-05-27T22:53:22.821Z,24.40
2018-05-27T22:55:51.867Z,24.40
2018-05-27T22:58:21.998Z,24.40
2018-05-27T23:00:51.297Z,24.30
2018-05-27T23:03:20.356Z,24.40
2018-05-27T23:05:55.940Z,24.40
2018-05-27T23:08:25.696Z,24.40
2018-05-27T23:10:54.738Z,24.40
2018-05-27T23:13:23.847Z,24.40
2018-05-27T23:15:52.898Z,24.40
2018-05-27T23:18:22.750Z,24.40
2018-05-27T23:20:51.834Z,24.40
2018-05-27T23:23:20.907Z,24.40
2018-05-27T23:25:50.709Z,24.40
2018-05-27T23:28:21.741Z,24.40
2018-05-27T23:30:51.203Z,24.30
2018-05-27T23:33:20.268Z,24.40
2018-05-27T23:35:50.073Z,24.40
2018-05-27T23:38:19.111Z,24.30
2018-05-27T23:40:48.137Z,24.40
2018-05-27T23:43:18.353Z,24.40
2018-05-27T23:45:47.385Z,24.40
2018-05-27T23:48:16.440Z,24.40
2018-05-27T23:50:45.477Z,24.40
2018-05-27T23:53:14.499Z,24.40
2018-05-27T23:55:45.141Z,24.40
2018-05-27T23:58:14.195Z,24.40
